Time;durP1;ratioP1;P1;durP2;ratioP2;P2;SDS_P1;SDS_P2;PMS_P1;PMS_P2;Temp;Humidity;BMP_temperature;BMP_pressure;BME280_temperature;BME280_humidity;BME280_pressure;Samples;Min_cycle;Max_cycle;Signal;HPM_P1;HPM_P2
2023/03/03 00:01:42;;;;;;;5.22;4.72;;;15.60;49.90;;;;;;5112699;28;20534;-55
2023/03/03 00:04:08;;;;;;;4.80;4.40;;;15.50;49.90;;;;;;5112486;28;20643;-51
2023/03/03 00:06:33;;;;;;;4.60;4.20;;;15.60;50.00;;;;;;5112890;28;20564;-55
2023/03/03 00:08:59;;;;;;;4.47;4.00;;;15.60;50.00;;;;;;5112389;28;20177;-53
2023/03/03 00:11:24;;;;;;;4.85;4.45;;;15.60;50.00;;;;;;5111986;28;20177;-53
2023/03/03 00:13:54;;;;;;;5.32;4.63;;;15.50;49.90;;;;;;5112492;28;20173;-54
2023/03/03 00:16:39;;;;;;;6.38;4.53;;;15.50;50.00;;;;;;5112641;28;20208;-55
2023/03/03 00:19:16;;;;;;;4.75;4.35;;;15.50;49.90;;;;;;5112516;28;20177;-54
2023/03/03 00:21:43;;;;;;;5.25;4.75;;;15.50;50.00;;;;;;5112545;28;20247;-54
2023/03/03 00:24:22;;;;;;;5.72;4.78;;;15.50;49.90;;;;;;5110665;28;20181;-54
2023/03/03 00:26:55;;;;;;;5.22;4.72;;;15.50;49.90;;;;;;5112210;28;20223;-55
2023/03/03 00:29:31;;;;;;;4.72;4.32;;;15.50;50.00;;;;;;5112834;28;20173;-54
2023/03/03 00:32:14;;;;;;;4.85;4.40;;;15.50;49.90;;;;;;5111481;28;20527;-55
2023/03/03 00:34:40;;;;;;;4.50;4.10;;;15.40;49.90;;;;;;5112526;28;20536;-55
2023/03/03 00:37:18;;;;;;;5.13;4.70;;;15.40;49.90;;;;;;5110790;28;20623;-53
2023/03/03 00:39:44;;;;;;;4.63;4.22;;;15.40;49.90;;;;;;5094660;28;20173;-55
2023/03/03 00:42:13;;;;;;;4.65;4.18;;;15.40;49.90;;;;;;5112534;28;20173;-55
2023/03/03 00:44:43;;;;;;;5.07;4.68;;;15.40;50.00;;;;;;5111710;28;20241;-56
2023/03/03 00:47:30;;;;;;;5.07;4.68;;;15.50;50.00;;;;;;5112423;28;20188;-55
2023/03/03 00:50:10;;;;;;;4.97;4.47;;;15.40;50.70;;;;;;5111947;28;20173;-55
2023/03/03 00:52:37;;;;;;;4.57;4.18;;;15.40;50.00;;;;;;5111965;28;20533;-55
2023/03/03 00:55:03;;;;;;;4.90;4.45;;;15.30;49.90;;;;;;5111969;28;20175;-54
2023/03/03 00:57:29;;;;;;;5.03;4.40;;;15.30;49.90;;;;;;5112466;28;20181;-54
2023/03/03 00:59:55;;;;;;;5.18;4.68;;;15.40;50.00;;;;;;5111935;28;20169;-54
2023/03/03 01:02:20;;;;;;;4.60;4.20;;;15.40;50.00;;;;;;5116174;28;20268;-55
2023/03/03 01:04:49;;;;;;;4.82;4.43;;;15.30;49.90;;;;;;5115656;28;20173;-54
2023/03/03 01:07:14;;;;;;;4.75;4.35;;;15.30;49.90;;;;;;5113924;28;20184;-55
2023/03/03 01:09:40;;;;;;;4.43;4.03;;;15.30;50.00;;;;;;5115829;28;20177;-54
2023/03/03 01:12:05;;;;;;;5.10;4.65;;;15.30;49.90;;;;;;5115587;28;20318;-51
2023/03/03 01:14:31;;;;;;;5.00;4.60;;;15.30;50.00;;;;;;5115234;28;20281;-53
2023/03/03 01:16:57;;;;;;;4.90;4.50;;;15.30;50.00;;;;;;5114070;28;20196;-55
2023/03/03 01:19:22;;;;;;;5.28;4.78;;;15.20;49.90;;;;;;5114625;28;20176;-55
2023/03/03 01:21:48;;;;;;;4.90;4.50;;;15.30;50.00;;;;;;5114467;28;20714;-53
2023/03/03 01:24:13;;;;;;;4.72;4.22;;;15.30;49.90;;;;;;5115688;28;20501;-54
2023/03/03 01:26:39;;;;;;;4.35;3.95;;;15.20;49.90;;;;;;5115538;28;20487;-50
2023/03/03 01:29:04;;;;;;;4.70;4.30;;;15.20;49.90;;;;;;5114391;28;20643;-53
2023/03/03 01:31:30;;;;;;;5.20;4.70;;;15.30;50.00;;;;;;5115358;28;20256;-53
2023/03/03 01:33:55;;;;;;;4.65;4.25;;;15.20;49.90;;;;;;5114195;28;20273;-54
2023/03/03 01:36:24;;;;;;;5.32;4.82;;;15.20;49.90;;;;;;5115428;28;20312;-52
2023/03/03 01:38:50;;;;;;;4.57;4.18;;;15.20;49.90;;;;;;5114924;28;20207;-51
2023/03/03 01:41:16;;;;;;;4.95;4.55;;;15.20;49.90;;;;;;5114509;28;20205;-53
2023/03/03 01:43:46;;;;;;;4.68;4.28;;;15.20;49.90;;;;;;5115113;28;20205;-54
2023/03/03 01:46:30;;;;;;;4.25;3.85;;;15.20;50.00;;;;;;5115368;28;20200;-51
2023/03/03 01:49:01;;;;;;;4.38;3.97;;;15.20;49.90;;;;;;5114135;28;20252;-50
2023/03/03 01:51:32;;;;;;;4.28;3.88;;;15.20;49.90;;;;;;5097590;28;20639;-51
2023/03/03 01:54:12;;;;;;;4.00;3.65;;;15.10;49.90;;;;;;5097162;28;20173;-53
2023/03/03 01:56:38;;;;;;;4.35;4.00;;;15.20;50.00;;;;;;5112904;28;20742;-51
2023/03/03 01:59:28;;;;;;;4.22;3.83;;;15.10;49.90;;;;;;5114482;28;20263;-53
2023/03/03 02:01:54;;;;;;;4.38;3.97;;;15.10;50.00;;;;;;5103396;28;20177;-55
2023/03/03 02:04:20;;;;;;;4.38;3.97;;;15.10;49.90;;;;;;5114143;28;20177;-54
2023/03/03 02:07:05;;;;;;;3.97;3.67;;;15.10;49.90;;;;;;5113146;28;20182;-54
2023/03/03 02:09:50;;;;;;;4.05;3.65;;;15.10;49.90;;;;;;5096222;28;20715;-52
2023/03/03 02:12:16;;;;;;;4.93;4.53;;;15.10;50.00;;;;;;5113837;28;20173;-50
2023/03/03 02:14:41;;;;;;;5.03;4.05;;;15.10;50.00;;;;;;5096062;28;20181;-53
2023/03/03 02:17:07;;;;;;;4.63;4.20;;;15.10;50.00;;;;;;5113715;28;20204;-51
2023/03/03 02:19:50;;;;;;;5.03;4.53;;;15.10;50.00;;;;;;5113418;28;20173;-51
2023/03/03 02:22:17;;;;;;;4.53;4.13;;;15.10;50.00;;;;;;5114447;28;20189;-55
2023/03/03 02:24:46;;;;;;;4.40;4.00;;;15.00;49.90;;;;;;5112246;28;20212;-55
2023/03/03 02:27:13;;;;;;;5.25;4.80;;;15.10;50.00;;;;;;5113170;28;20212;-51
2023/03/03 02:29:38;;;;;;;4.55;4.15;;;15.10;50.00;;;;;;5112997;28;20177;-52
2023/03/03 02:32:04;;;;;;;4.38;3.97;;;15.10;50.00;;;;;;5113395;28;20175;-53
2023/03/03 02:34:29;;;;;;;4.20;3.80;;;15.00;50.70;;;;;;5114373;28;20256;-54
2023/03/03 02:36:55;;;;;;;4.20;3.80;;;15.00;49.90;;;;;;5113980;28;20209;-53
2023/03/03 02:39:25;;;;;;;4.60;4.20;;;15.00;50.00;;;;;;5113932;28;20273;-54
2023/03/03 02:42:15;;;;;;;4.82;4.32;;;15.00;50.60;;;;;;5114235;28;20175;-54
2023/03/03 02:44:40;;;;;;;4.35;3.95;;;15.00;49.90;;;;;;5112302;28;20188;-54
2023/03/03 02:47:06;;;;;;;4.30;3.90;;;15.00;50.00;;;;;;5113971;28;20169;-53
2023/03/03 02:49:33;;;;;;;4.60;4.15;;;15.00;49.90;;;;;;5114390;28;20181;-54
2023/03/03 02:52:00;;;;;;;4.95;4.45;;;15.00;49.90;;;;;;5113208;28;20173;-52
2023/03/03 02:54:26;;;;;;;4.22;3.83;;;14.90;50.00;;;;;;5114154;28;20177;-54
2023/03/03 02:56:52;;;;;;;4.18;3.78;;;15.00;49.90;;;;;;5113627;28;20213;-55
2023/03/03 02:59:17;;;;;;;4.43;4.03;;;15.00;49.90;;;;;;5113193;28;20650;-54
2023/03/03 03:01:43;;;;;;;4.80;4.30;;;14.90;49.90;;;;;;5113562;28;20181;-55
2023/03/03 03:04:10;;;;;;;4.53;4.07;;;14.90;50.00;;;;;;5112934;28;20169;-53
2023/03/03 03:06:36;;;;;;;4.32;3.92;;;14.90;50.00;;;;;;5113249;28;20178;-55
2023/03/03 03:09:02;;;;;;;4.10;3.67;;;14.90;50.00;;;;;;5113523;28;20177;-55
2023/03/03 03:11:28;;;;;;;4.13;3.83;;;14.90;49.90;;;;;;5113764;28;20177;-53
2023/03/03 03:13:53;;;;;;;4.63;4.22;;;14.90;50.00;;;;;;5112927;28;20173;-54
2023/03/03 03:16:19;;;;;;;4.93;4.43;;;14.90;50.00;;;;;;5113820;28;20213;-55
2023/03/03 03:18:44;;;;;;;4.97;4.53;;;14.90;50.00;;;;;;5113250;28;20169;-54
2023/03/03 03:21:11;;;;;;;4.57;4.18;;;14.90;50.00;;;;;;5112817;28;20225;-55
2023/03/03 03:23:37;;;;;;;4.60;4.20;;;14.90;50.00;;;;;;5113424;28;20179;-55
2023/03/03 03:26:02;;;;;;;5.05;4.50;;;14.90;50.10;;;;;;5113178;28;20248;-54
2023/03/03 03:28:28;;;;;;;4.78;4.28;;;14.90;50.00;;;;;;5113071;28;20173;-54
2023/03/03 03:30:53;;;;;;;4.10;3.70;;;14.90;50.20;;;;;;5113430;28;20270;-51
2023/03/03 03:33:19;;;;;;;4.60;4.20;;;14.80;50.00;;;;;;5113547;28;20169;-51
2023/03/03 03:35:46;;;;;;;4.70;4.30;;;14.80;50.00;;;;;;5112421;28;20748;-54
2023/03/03 03:38:12;;;;;;;4.60;4.13;;;14.80;50.00;;;;;;5113355;28;20214;-54
2023/03/03 03:40:37;;;;;;;4.45;4.05;;;14.80;50.00;;;;;;5112521;28;20188;-55
2023/03/03 03:43:03;;;;;;;4.40;3.97;;;14.80;50.00;;;;;;5113213;28;20556;-52
2023/03/03 03:45:28;;;;;;;4.40;4.00;;;14.80;50.00;;;;;;5113425;28;20518;-55
2023/03/03 03:47:54;;;;;;;4.10;3.70;;;14.80;50.00;;;;;;5112211;28;20184;-50
2023/03/03 03:50:20;;;;;;;4.68;4.20;;;14.80;50.10;;;;;;5113323;28;20176;-54
2023/03/03 03:52:45;;;;;;;4.80;4.28;;;14.80;50.00;;;;;;5112919;28;20728;-55
2023/03/03 03:55:11;;;;;;;4.68;4.18;;;14.80;50.10;;;;;;5112385;28;20339;-52
2023/03/03 03:57:36;;;;;;;4.85;4.20;;;14.80;50.10;;;;;;5113087;28;20173;-55
2023/03/03 04:00:03;;;;;;;4.40;4.00;;;14.80;50.10;;;;;;5112936;28;20181;-55
2023/03/03 04:02:29;;;;;;;4.70;4.20;;;14.80;50.00;;;;;;5112440;28;20177;-54
2023/03/03 04:04:55;;;;;;;4.18;3.83;;;14.80;50.10;;;;;;5112672;28;20168;-55
2023/03/03 04:07:20;;;;;;;5.00;4.50;;;14.70;50.10;;;;;;5113175;28;20207;-56
2023/03/03 04:09:46;;;;;;;4.57;3.90;;;14.80;50.10;;;;;;5111976;28;20689;-55
2023/03/03 04:12:11;;;;;;;4.65;4.25;;;14.80;50.10;;;;;;5112951;28;20639;-56
2023/03/03 04:14:37;;;;;;;4.47;4.07;;;14.80;50.10;;;;;;5112918;28;20169;-54
2023/03/03 04:17:02;;;;;;;4.93;4.20;;;14.70;50.10;;;;;;5111973;28;20258;-54
2023/03/03 04:19:28;;;;;;;4.20;3.80;;;14.70;50.10;;;;;;5113125;28;20192;-56
2023/03/03 04:21:53;;;;;;;4.90;4.40;;;14.70;50.10;;;;;;5112498;28;20225;-57
2023/03/03 04:24:19;;;;;;;4.43;4.03;;;14.70;50.10;;;;;;5112322;28;20173;-53
2023/03/03 04:26:45;;;;;;;6.28;4.78;;;14.70;50.10;;;;;;5113013;28;20177;-54
2023/03/03 04:29:11;;;;;;;4.80;4.15;;;14.70;50.10;;;;;;5113113;28;20207;-53
2023/03/03 04:31:37;;;;;;;4.00;3.60;;;14.70;50.20;;;;;;5112204;28;20248;-56
2023/03/03 04:34:02;;;;;;;4.47;4.07;;;14.70;50.10;;;;;;5112622;28;20165;-55
2023/03/03 04:36:28;;;;;;;4.38;3.97;;;14.70;50.10;;;;;;5115965;28;20200;-56
2023/03/03 04:38:53;;;;;;;4.82;4.32;;;14.70;50.10;;;;;;5115326;28;20234;-56
2023/03/03 04:41:19;;;;;;;4.75;4.25;;;14.70;50.20;;;;;;5116590;28;20632;-55
2023/03/03 04:43:44;;;;;;;4.60;4.10;;;14.60;50.20;;;;;;5115643;28;20673;-54
2023/03/03 04:46:10;;;;;;;5.03;4.22;;;14.70;50.20;;;;;;5116279;28;20286;-54
2023/03/03 04:48:35;;;;;;;4.32;3.92;;;14.60;50.10;;;;;;5116258;28;20538;-53
2023/03/03 04:51:01;;;;;;;5.00;4.43;;;14.60;50.10;;;;;;5115283;28;20272;-52
2023/03/03 04:53:26;;;;;;;4.70;3.80;;;14.60;50.10;;;;;;5116123;28;20323;-51
2023/03/03 04:55:52;;;;;;;5.05;4.55;;;14.60;50.10;;;;;;5115931;28;20662;-52
2023/03/03 04:58:18;;;;;;;4.55;4.15;;;14.60;50.10;;;;;;5115614;28;20173;-51
2023/03/03 05:00:45;;;;;;;5.30;4.47;;;14.60;50.20;;;;;;5116044;28;20624;-56
2023/03/03 05:03:11;;;;;;;4.38;3.95;;;14.60;50.20;;;;;;5116087;28;20185;-56
2023/03/03 05:05:37;;;;;;;5.03;4.38;;;14.50;50.10;;;;;;5115322;28;20184;-55
2023/03/03 05:08:02;;;;;;;4.82;4.32;;;14.60;50.20;;;;;;5115468;28;20166;-54
2023/03/03 05:10:28;;;;;;;5.05;4.13;;;14.60;50.20;;;;;;5116063;28;20221;-53
2023/03/03 05:12:54;;;;;;;5.03;4.53;;;14.60;50.20;;;;;;5114936;28;20650;-50
2023/03/03 05:15:19;;;;;;;5.07;4.22;;;14.60;50.20;;;;;;5115847;28;20173;-53
2023/03/03 05:17:45;;;;;;;4.00;3.60;;;14.60;50.20;;;;;;5115475;28;20173;-53
2023/03/03 05:20:11;;;;;;;4.60;3.97;;;14.60;50.30;;;;;;5114792;28;20221;-52
2023/03/03 05:22:36;;;;;;;5.15;4.70;;;14.50;50.10;;;;;;5114286;28;20180;-56
2023/03/03 05:25:02;;;;;;;4.53;4.13;;;14.60;50.10;;;;;;5115484;28;20173;-55
2023/03/03 05:27:27;;;;;;;6.25;4.82;;;14.50;50.10;;;;;;5114635;28;20532;-54
2023/03/03 05:29:53;;;;;;;4.72;4.28;;;14.50;50.20;;;;;;5115488;28;20167;-51
2023/03/03 05:32:18;;;;;;;4.35;3.95;;;14.50;50.20;;;;;;5115579;28;20169;-54
2023/03/03 05:34:44;;;;;;;4.65;4.07;;;14.50;50.20;;;;;;5114320;28;20202;-56
2023/03/03 05:37:09;;;;;;;4.45;4.05;;;14.50;50.30;;;;;;5115239;28;20273;-55
2023/03/03 05:39:35;;;;;;;4.78;4.28;;;14.50;50.20;;;;;;5115464;28;20655;-56
2023/03/03 05:42:01;;;;;;;4.55;4.13;;;14.50;50.20;;;;;;5114416;28;20717;-55
2023/03/03 05:44:26;;;;;;;5.25;4.47;;;14.50;50.20;;;;;;5115355;28;20252;-54
2023/03/03 05:46:52;;;;;;;4.40;4.00;;;14.50;50.20;;;;;;5113567;28;20177;-55
2023/03/03 05:49:17;;;;;;;5.47;4.72;;;14.50;50.30;;;;;;5114560;28;20226;-55
2023/03/03 05:51:43;;;;;;;5.13;4.55;;;14.50;50.20;;;;;;5114695;28;20693;-54
2023/03/03 05:54:08;;;;;;;5.22;4.63;;;14.50;50.20;;;;;;5114232;28;20632;-52
2023/03/03 05:56:34;;;;;;;5.30;4.72;;;14.40;50.20;;;;;;5115117;28;20296;-52
2023/03/03 05:58:59;;;;;;;4.88;4.38;;;14.40;50.20;;;;;;5114697;28;20177;-54
2023/03/03 06:01:26;;;;;;;4.82;4.32;;;14.50;50.50;;;;;;5114611;28;20169;-55
2023/03/03 06:03:51;;;;;;;4.57;4.18;;;14.50;50.30;;;;;;5114658;28;20181;-54
2023/03/03 06:06:18;;;;;;;5.18;4.55;;;14.50;50.10;;;;;;5114623;28;20180;-56
2023/03/03 06:08:43;;;;;;;4.82;4.38;;;14.60;49.90;;;;;;5113686;28;20720;-54
2023/03/03 06:11:09;;;;;;;4.35;3.95;;;14.70;49.70;;;;;;5114840;28;20181;-54
2023/03/03 06:13:35;;;;;;;4.50;3.78;;;14.80;49.60;;;;;;5114666;28;20195;-51
2023/03/03 06:16:00;;;;;;;3.85;3.45;;;15.00;49.50;;;;;;5113362;28;20743;-54
2023/03/03 06:18:26;;;;;;;4.07;3.63;;;15.10;49.30;;;;;;5114417;28;20189;-55
2023/03/03 06:20:52;;;;;;;3.65;3.35;;;15.30;49.10;;;;;;5113777;28;20231;-54
2023/03/03 06:23:18;;;;;;;3.63;3.33;;;15.50;48.90;;;;;;5113943;28;20184;-54
2023/03/03 06:25:43;;;;;;;4.30;3.45;;;15.60;48.60;;;;;;5114318;28;20627;-53
2023/03/03 06:28:09;;;;;;;3.78;3.33;;;15.80;48.40;;;;;;5114440;28;20213;-56
2023/03/03 06:30:34;;;;;;;3.88;3.38;;;15.90;48.30;;;;;;5113681;28;20169;-54
2023/03/03 06:33:00;;;;;;;3.42;2.83;;;15.90;48.10;;;;;;5113986;28;20569;-55
2023/03/03 06:35:25;;;;;;;3.97;3.58;;;16.00;48.00;;;;;;5114024;28;20192;-55
2023/03/03 06:37:51;;;;;;;4.30;3.47;;;16.00;48.00;;;;;;5113121;28;20640;-52
2023/03/03 06:40:17;;;;;;;3.72;3.22;;;16.10;48.00;;;;;;5114202;28;20172;-56
2023/03/03 06:42:42;;;;;;;3.42;3.13;;;16.10;48.00;;;;;;5113866;28;20241;-55
2023/03/03 06:45:08;;;;;;;4.05;3.20;;;16.10;48.00;;;;;;5113326;28;20699;-55
2023/03/03 06:47:34;;;;;;;3.30;3.00;;;16.10;48.00;;;;;;5113977;28;20627;-54
2023/03/03 06:49:59;;;;;;;4.45;3.58;;;16.20;48.00;;;;;;5113653;28;20198;-55
2023/03/03 06:52:25;;;;;;;3.53;3.22;;;16.20;47.80;;;;;;5113071;28;20260;-54
2023/03/03 06:54:56;;;;;;;3.90;3.50;;;16.20;47.80;;;;;;5113748;28;20173;-54
2023/03/03 06:57:32;;;;;;;3.20;2.90;;;16.20;47.80;;;;;;5112042;28;20357;-54
2023/03/03 07:00:05;;;;;;;3.17;2.88;;;16.30;47.90;;;;;;5113380;28;20263;-54
2023/03/03 07:02:30;;;;;;;3.35;3.05;;;16.40;47.90;;;;;;5096164;28;20177;-56
2023/03/03 07:04:56;;;;;;;3.35;2.85;;;16.40;47.80;;;;;;5112848;28;20204;-55
2023/03/03 07:07:23;;;;;;;3.17;2.88;;;16.60;47.60;;;;;;5113647;28;20549;-55
2023/03/03 07:09:53;;;;;;;2.60;2.40;;;16.70;47.40;;;;;;5113385;28;20243;-54
2023/03/03 07:12:21;;;;;;;2.92;2.63;;;16.70;47.30;;;;;;5112887;28;20180;-53
2023/03/03 07:14:54;;;;;;;3.35;3.08;;;16.60;47.30;;;;;;5113048;28;20257;-52
2023/03/03 07:17:20;;;;;;;3.08;2.75;;;16.50;47.60;;;;;;5113416;28;20295;-54
2023/03/03 07:19:46;;;;;;;3.38;2.75;;;16.50;47.80;;;;;;5112582;28;20242;-55
2023/03/03 07:22:17;;;;;;;2.80;2.58;;;16.50;47.80;;;;;;5113077;28;20233;-52
2023/03/03 07:24:52;;;;;;;2.35;2.15;;;16.50;47.70;;;;;;5113318;28;20181;-55
2023/03/03 07:27:18;;;;;;;3.45;3.15;;;16.50;47.80;;;;;;5112612;28;20172;-51
2023/03/03 07:29:46;;;;;;;2.45;2.25;;;16.40;47.80;;;;;;5112773;28;20169;-54
2023/03/03 07:32:31;;;;;;;3.05;2.75;;;16.40;47.90;;;;;;5113164;28;20181;-52
2023/03/03 07:34:57;;;;;;;3.20;2.90;;;16.30;48.00;;;;;;5101638;28;20264;-55
2023/03/03 07:37:37;;;;;;;2.67;2.38;;;16.30;48.10;;;;;;5113098;28;20296;-53
2023/03/03 07:40:28;;;;;;;2.50;2.30;;;16.40;48.10;;;;;;5094186;28;20173;-51
2023/03/03 07:42:53;;;;;;;2.80;2.60;;;16.40;48.00;;;;;;5111926;28;20169;-56
2023/03/03 07:45:30;;;;;;;2.50;2.30;;;16.60;47.90;;;;;;5113107;28;20165;-56
2023/03/03 07:48:18;;;;;;;3.40;3.10;;;16.80;47.40;;;;;;5112004;28;20252;-63
2023/03/03 07:50:43;;;;;;;5.10;2.63;;;17.10;47.20;;;;;;5111238;28;20184;-69
2023/03/03 07:53:14;;;;;;;4.07;2.75;;;17.30;46.90;;;;;;5112956;28;20177;-68
2023/03/03 07:55:39;;;;;;;3.42;3.10;;;17.40;46.80;;;;;;5110775;28;20200;-63
2023/03/03 07:58:15;;;;;;;2.95;2.65;;;17.50;46.70;;;;;;5094364;28;20179;-63
2023/03/03 08:01:11;;;;;;;2.63;2.42;;;17.60;46.60;;;;;;5112278;28;20180;-63
2023/03/03 08:03:37;;;;;;;5.57;2.78;;;17.70;46.60;;;;;;5112777;28;20172;-62
2023/03/03 08:06:39;;;;;;;2.33;1.90;;;17.70;46.70;;;;;;5112405;28;20168;-61
2023/03/03 08:09:11;;;;;;;2.53;2.22;;;17.80;46.50;;;;;;5110392;28;20169;-63
2023/03/03 08:11:43;;;;;;;4.80;2.50;;;17.80;46.50;;;;;;5116466;28;20207;-63
2023/03/03 08:14:09;;;;;;;6.32;2.42;;;17.80;46.70;;;;;;5098869;28;20246;-62
2023/03/03 08:16:38;;;;;;;5.07;2.40;;;17.70;46.80;;;;;;5115400;28;20261;-60
2023/03/03 08:19:04;;;;;;;3.05;2.38;;;17.70;46.90;;;;;;5114197;28;20291;-61
2023/03/03 08:21:31;;;;;;;2.30;2.10;;;17.70;46.90;;;;;;5115784;28;20606;-61
2023/03/03 08:23:56;;;;;;;2.97;2.20;;;17.70;47.00;;;;;;5114960;28;20169;-62
2023/03/03 08:26:23;;;;;;;3.90;1.92;;;17.70;47.20;;;;;;5115887;28;20180;-62
2023/03/03 08:28:48;;;;;;;2.40;2.20;;;17.70;47.30;;;;;;5115458;28;20264;-62
2023/03/03 08:31:14;;;;;;;3.70;2.30;;;17.60;47.30;;;;;;5117766;27;20173;-63
2023/03/03 08:33:39;;;;;;;4.82;2.42;;;17.50;47.40;;;;;;5117512;27;20251;-64
2023/03/03 08:36:06;;;;;;;2.53;2.33;;;17.40;47.60;;;;;;5115124;27;20205;-63
2023/03/03 08:38:31;;;;;;;2.55;2.08;;;17.50;47.60;;;;;;5115417;27;20173;-62
2023/03/03 08:40:57;;;;;;;3.88;2.30;;;17.40;47.70;;;;;;5136703;27;20177;-62
2023/03/03 08:43:23;;;;;;;3.00;1.90;;;17.30;47.60;;;;;;5131175;27;20193;-62
2023/03/03 08:45:50;;;;;;;2.95;1.83;;;17.30;47.70;;;;;;5116236;28;20185;-62
2023/03/03 08:48:15;;;;;;;2.28;1.65;;;17.20;47.80;;;;;;5126940;27;20528;-62
2023/03/03 08:50:41;;;;;;;1.98;1.77;;;17.10;48.00;;;;;;5136105;27;20265;-62
2023/03/03 08:53:07;;;;;;;2.60;1.83;;;17.00;48.10;;;;;;5136636;27;20171;-61
2023/03/03 08:55:33;;;;;;;3.00;1.92;;;17.10;48.20;;;;;;5136651;27;20176;-62
2023/03/03 08:57:58;;;;;;;2.47;1.95;;;17.00;48.10;;;;;;5135667;27;20180;-63
2023/03/03 09:00:25;;;;;;;1.80;1.70;;;17.10;48.20;;;;;;5136819;27;20164;-64
2023/03/03 09:02:50;;;;;;;3.63;1.77;;;17.00;48.20;;;;;;5136375;27;20184;-63
2023/03/03 09:05:16;;;;;;;1.75;1.65;;;17.10;48.20;;;;;;5125454;27;20531;-62
2023/03/03 09:07:42;;;;;;;2.92;1.80;;;17.10;48.20;;;;;;5115544;28;20211;-66
2023/03/03 09:10:09;;;;;;;2.80;1.98;;;17.10;48.20;;;;;;5115841;28;20178;-61
2023/03/03 09:12:42;;;;;;;2.85;1.60;;;17.10;48.20;;;;;;5113616;28;20302;-62
2023/03/03 09:15:20;;;;;;;5.10;1.90;;;17.20;48.40;;;;;;5115802;28;20173;-62
2023/03/03 09:17:48;;;;;;;2.80;1.65;;;17.20;48.40;;;;;;5114647;28;20208;-62
2023/03/03 09:20:21;;;;;;;2.00;1.70;;;17.20;48.40;;;;;;5114745;28;20224;-61
2023/03/03 09:22:47;;;;;;;3.60;1.52;;;17.20;48.40;;;;;;5115502;28;20263;-61
2023/03/03 09:25:33;;;;;;;2.22;1.50;;;17.20;48.40;;;;;;5113807;28;20319;-61
2023/03/03 09:28:01;;;;;;;3.63;1.83;;;17.10;48.50;;;;;;5113841;28;20181;-62
2023/03/03 09:30:35;;;;;;;1.45;1.35;;;17.10;48.60;;;;;;5115317;28;20177;-62
2023/03/03 09:33:01;;;;;;;1.85;1.70;;;17.10;48.70;;;;;;5113490;28;20214;-63
2023/03/03 09:35:37;;;;;;;1.70;1.60;;;17.10;48.80;;;;;;5115260;28;20168;-63
2023/03/03 09:38:18;;;;;;;2.72;1.70;;;17.10;48.80;;;;;;5115252;28;20189;-62
2023/03/03 09:41:02;;;;;;;1.77;1.52;;;17.10;48.80;;;;;;5092628;28;20172;-62
2023/03/03 09:43:54;;;;;;;4.60;1.88;;;17.10;48.80;;;;;;5093632;28;20173;-63
2023/03/03 09:46:50;;;;;;;1.90;1.65;;;17.10;48.70;;;;;;5092583;28;20265;-62
2023/03/03 09:49:43;;;;;;;1.98;1.50;;;17.10;48.70;;;;;;5093218;28;20184;-62
2023/03/03 09:52:22;;;;;;;1.60;1.50;;;17.10;48.70;;;;;;5082798;28;20197;-63
2023/03/03 09:55:17;;;;;;;1.80;1.42;;;17.00;48.70;;;;;;5113779;28;20196;-63
2023/03/03 09:57:54;;;;;;;2.33;1.70;;;17.00;48.80;;;;;;5112943;28;20590;-63
2023/03/03 10:00:26;;;;;;;2.50;1.38;;;16.90;48.90;;;;;;5114123;28;20166;-64
2023/03/03 10:03:20;;;;;;;3.53;1.92;;;16.90;48.80;;;;;;5113314;28;20181;-63
2023/03/03 10:06:12;;;;;;;3.40;1.60;;;17.00;48.70;;;;;;5114276;28;20176;-62
2023/03/03 10:08:42;;;;;;;3.38;1.80;;;17.10;48.50;;;;;;5102035;28;20209;-62
2023/03/03 10:11:19;;;;;;;4.57;1.90;;;17.20;48.20;;;;;;5113507;28;20177;-62
2023/03/03 10:14:16;;;;;;;1.98;1.88;;;17.30;48.00;;;;;;5114097;28;20203;-62
2023/03/03 10:17:19;;;;;;;1.67;1.55;;;17.30;48.00;;;;;;5112465;28;20329;-62
2023/03/03 10:20:00;;;;;;;2.80;1.60;;;17.30;48.00;;;;;;5113077;28;20169;-62
2023/03/03 10:23:13;;;;;;;1.50;1.40;;;17.30;48.00;;;;;;5113762;28;20184;-62
2023/03/03 10:25:41;;;;;;;2.67;1.55;;;17.30;48.30;;;;;;5089072;28;20185;-62
2023/03/03 10:28:18;;;;;;;1.90;1.45;;;17.20;48.40;;;;;;5114307;28;20173;-63
2023/03/03 10:31:10;;;;;;;2.00;1.80;;;17.10;48.40;;;;;;5113276;28;20173;-63
2023/03/03 10:33:54;;;;;;;1.55;1.42;;;17.10;48.50;;;;;;5105065;28;20181;-63
2023/03/03 10:36:28;;;;;;;1.70;1.60;;;17.10;48.50;;;;;;5113451;28;20730;-63
2023/03/03 10:39:32;;;;;;;2.45;1.88;;;17.00;48.60;;;;;;5118342;27;20541;-62
2023/03/03 10:42:14;;;;;;;3.15;1.80;;;16.90;48.70;;;;;;5133154;27;20201;-62
2023/03/03 10:44:45;;;;;;;1.77;1.52;;;16.80;48.70;;;;;;5133984;27;20170;-62
2023/03/03 10:47:22;;;;;;;2.20;1.80;;;16.80;48.70;;;;;;5134164;27;20165;-62
2023/03/03 10:50:15;;;;;;;1.92;1.65;;;16.80;48.70;;;;;;5133472;27;20172;-62
2023/03/03 10:52:48;;;;;;;2.30;1.33;;;16.80;48.70;;;;;;5133296;27;20234;-62
2023/03/03 10:55:20;;;;;;;2.22;1.75;;;16.80;48.80;;;;;;5134127;27;20691;-62
2023/03/03 10:58:04;;;;;;;1.55;1.45;;;16.70;48.70;;;;;;5131798;27;20232;-63
2023/03/03 11:00:40;;;;;;;1.85;1.75;;;16.80;48.80;;;;;;5113713;27;20161;-63
2023/03/03 11:03:32;;;;;;;1.48;1.38;;;16.80;48.60;;;;;;5113330;28;20177;-62
2023/03/03 11:06:03;;;;;;;1.88;1.77;;;16.80;48.50;;;;;;5111567;28;20260;-63
2023/03/03 11:08:34;;;;;;;2.05;1.60;;;16.90;48.50;;;;;;5095842;28;20256;-62
2023/03/03 11:11:13;;;;;;;1.50;1.40;;;17.00;48.50;;;;;;5111016;28;20619;-62
2023/03/03 11:14:02;;;;;;;1.40;1.30;;;17.00;48.40;;;;;;5113173;28;20187;-62
2023/03/03 11:16:42;;;;;;;1.20;1.10;;;16.90;48.40;;;;;;5112227;28;20216;-62
2023/03/03 11:19:23;;;;;;;1.55;1.45;;;16.90;48.50;;;;;;5112638;28;20172;-62
2023/03/03 11:21:57;;;;;;;1.88;1.48;;;16.90;48.60;;;;;;5112608;28;20703;-62
2023/03/03 11:24:32;;;;;;;1.30;1.20;;;16.80;48.70;;;;;;5111799;28;20180;-62
2023/03/03 11:27:19;;;;;;;1.30;1.20;;;16.70;48.60;;;;;;5112076;28;20263;-62
2023/03/03 11:30:17;;;;;;;1.45;1.25;;;16.80;48.70;;;;;;5112953;28;20169;-63
2023/03/03 11:33:29;;;;;;;1.27;1.17;;;16.70;48.70;;;;;;5110634;28;20276;-64
2023/03/03 11:36:02;;;;;;;1.00;1.00;;;16.70;48.70;;;;;;5108998;28;20209;-62
2023/03/03 11:38:48;;;;;;;1.40;1.30;;;16.80;48.70;;;;;;5113704;27;20267;-63
2023/03/03 11:41:32;;;;;;;1.33;1.08;;;16.80;48.70;;;;;;5133070;27;20172;-63
2023/03/03 11:44:18;;;;;;;1.17;1.08;;;16.80;48.70;;;;;;5132733;27;20251;-64
2023/03/03 11:46:50;;;;;;;1.42;1.20;;;16.90;48.70;;;;;;5131078;27;20195;-69
2023/03/03 11:49:32;;;;;;;1.73;1.10;;;16.90;48.70;;;;;;5131886;27;20657;-63
2023/03/03 11:52:34;;;;;;;3.42;1.20;;;16.80;48.90;;;;;;5131775;27;20241;-63
2023/03/03 11:55:15;;;;;;;3.38;1.45;;;16.70;49.20;;;;;;5132193;27;20626;-64
2023/03/03 11:58:19;;;;;;;1.20;1.10;;;16.90;49.10;;;;;;5133118;27;20212;-64
2023/03/03 12:00:50;;;;;;;1.30;1.17;;;17.00;49.00;;;;;;5091604;28;20242;-64
2023/03/03 12:03:34;;;;;;;2.05;1.05;;;17.00;48.90;;;;;;5092346;28;20181;-63
2023/03/03 12:06:22;;;;;;;2.60;1.33;;;17.10;48.90;;;;;;5090771;28;20640;-68
2023/03/03 12:09:06;;;;;;;3.97;1.40;;;17.00;49.10;;;;;;5089789;28;20183;-65
2023/03/03 12:11:51;;;;;;;1.50;1.10;;;16.90;49.30;;;;;;5092259;28;20219;-62
2023/03/03 12:14:46;;;;;;;4.28;1.60;;;16.80;49.50;;;;;;5090439;28;20161;-64
2023/03/03 12:17:43;;;;;;;2.40;1.23;;;16.90;49.60;;;;;;5087172;28;20224;-63
2023/03/03 12:20:15;;;;;;;2.63;1.15;;;17.00;49.50;;;;;;5091645;28;20222;-63
2023/03/03 12:22:52;;;;;;;1.58;1.00;;;17.00;49.30;;;;;;5091272;28;20169;-63
2023/03/03 12:25:34;;;;;;;2.08;1.08;;;17.10;49.30;;;;;;5090621;28;20257;-63
2023/03/03 12:28:09;;;;;;;3.80;1.50;;;17.10;49.20;;;;;;5089843;28;20252;-64
2023/03/03 12:31:21;;;;;;;1.15;0.88;;;17.00;49.20;;;;;;5091863;28;20173;-64
2023/03/03 12:33:55;;;;;;;1.27;1.10;;;16.90;49.40;;;;;;5049044;28;20297;-65
2023/03/03 12:36:35;;;;;;;4.15;1.38;;;16.80;49.50;;;;;;5088080;28;20267;-64
2023/03/03 12:39:43;;;;;;;1.90;1.00;;;16.80;49.50;;;;;;5104167;28;20207;-64
2023/03/03 12:42:15;;;;;;;1.27;1.17;;;16.80;49.30;;;;;;5051866;28;20178;-64
2023/03/03 12:44:47;;;;;;;2.13;1.05;;;16.90;49.20;;;;;;5069327;28;20178;-64
2023/03/03 12:47:24;;;;;;;2.95;1.13;;;17.00;49.10;;;;;;5113946;27;20641;-62
2023/03/03 12:50:00;;;;;;;2.03;1.30;;;17.00;49.00;;;;;;5131683;27;20180;-63
2023/03/03 12:52:30;;;;;;;1.13;0.93;;;17.00;49.00;;;;;;5131363;28;20263;-63
2023/03/03 12:54:58;;;;;;;2.15;0.90;;;16.90;49.00;;;;;;5132430;28;20176;-63
2023/03/03 12:57:27;;;;;;;1.77;1.10;;;16.90;49.00;;;;;;5135040;27;20208;-64
2023/03/03 13:00:18;;;;;;;0.82;0.77;;;17.00;48.90;;;;;;5120614;27;20639;-65
2023/03/03 13:02:51;;;;;;;0.95;0.93;;;16.90;49.00;;;;;;5115726;28;20192;-64
2023/03/03 13:05:28;;;;;;;5.35;1.17;;;16.90;49.10;;;;;;5113749;28;20237;-64
2023/03/03 13:08:20;;;;;;;0.88;0.88;;;17.00;48.90;;;;;;5114257;28;20172;-63
2023/03/03 13:11:00;;;;;;;1.17;1.08;;;17.10;48.80;;;;;;5114662;28;20184;-63
2023/03/03 13:13:43;;;;;;;1.42;1.10;;;17.10;48.70;;;;;;5097616;28;20177;-64